sensor_id;sensor_type;location;lat;lon;timestamp;P1;durP1;ratioP1;P2;durP2;ratioP2
62202;SDS011;48199;49.138;7.414;2022-07-23T00:02:25;10.73;;;7.45;;
62202;SDS011;48199;49.138;7.414;2022-07-23T00:04:50;11.45;;;6.95;;
62202;SDS011;48199;49.138;7.414;2022-07-23T00:07:16;13.00;;;7.78;;
62202;SDS011;48199;49.138;7.414;2022-07-23T00:09:41;11.75;;;7.03;;
62202;SDS011;48199;49.138;7.414;2022-07-23T00:12:07;8.77;;;6.68;;
62202;SDS011;48199;49.138;7.414;2022-07-23T00:14:32;10.65;;;7.55;;
62202;SDS011;48199;49.138;7.414;2022-07-23T00:16:57;13.30;;;7.70;;
62202;SDS011;48199;49.138;7.414;2022-07-23T00:19:23;12.13;;;7.00;;
62202;SDS011;48199;49.138;7.414;2022-07-23T00:21:48;11.27;;;7.45;;
62202;SDS011;48199;49.138;7.414;2022-07-23T00:24:14;12.52;;;7.35;;
62202;SDS011;48199;49.138;7.414;2022-07-23T00:26:39;10.38;;;7.32;;
62202;SDS011;48199;49.138;7.414;2022-07-23T00:29:04;12.18;;;7.85;;
62202;SDS011;48199;49.138;7.414;2022-07-23T00:31:30;13.25;;;7.45;;
62202;SDS011;48199;49.138;7.414;2022-07-23T00:33:55;18.85;;;7.25;;
62202;SDS011;48199;49.138;7.414;2022-07-23T00:36:26;15.98;;;7.28;;
62202;SDS011;48199;49.138;7.414;2022-07-23T00:38:52;15.07;;;6.82;;
62202;SDS011;48199;49.138;7.414;2022-07-23T00:41:18;12.65;;;7.43;;
62202;SDS011;48199;49.138;7.414;2022-07-23T00:43:43;11.18;;;7.53;;
62202;SDS011;48199;49.138;7.414;2022-07-23T00:46:09;10.90;;;7.65;;
62202;SDS011;48199;49.138;7.414;2022-07-23T00:48:34;12.75;;;7.10;;
62202;SDS011;48199;49.138;7.414;2022-07-23T00:50:59;9.77;;;6.53;;
62202;SDS011;48199;49.138;7.414;2022-07-23T00:53:25;12.57;;;7.70;;
62202;SDS011;48199;49.138;7.414;2022-07-23T00:55:50;12.45;;;6.97;;
62202;SDS011;48199;49.138;7.414;2022-07-23T00:58:16;10.43;;;7.47;;
62202;SDS011;48199;49.138;7.414;2022-07-23T01:00:42;10.43;;;7.43;;
62202;SDS011;48199;49.138;7.414;2022-07-23T01:03:07;12.65;;;7.10;;
62202;SDS011;48199;49.138;7.414;2022-07-23T01:05:33;9.65;;;6.68;;
62202;SDS011;48199;49.138;7.414;2022-07-23T01:07:59;10.18;;;7.22;;
62202;SDS011;48199;49.138;7.414;2022-07-23T01:10:25;10.57;;;7.80;;
62202;SDS011;48199;49.138;7.414;2022-07-23T01:12:57;12.18;;;7.72;;
62202;SDS011;48199;49.138;7.414;2022-07-23T01:15:27;13.73;;;7.43;;
62202;SDS011;48199;49.138;7.414;2022-07-23T01:17:53;9.13;;;6.93;;
62202;SDS011;48199;49.138;7.414;2022-07-23T01:20:19;12.48;;;8.05;;
62202;SDS011;48199;49.138;7.414;2022-07-23T01:22:44;11.98;;;6.47;;
62202;SDS011;48199;49.138;7.414;2022-07-23T01:25:10;9.60;;;6.85;;
62202;SDS011;48199;49.138;7.414;2022-07-23T01:27:36;10.27;;;6.60;;
62202;SDS011;48199;49.138;7.414;2022-07-23T01:30:02;12.23;;;6.97;;
62202;SDS011;48199;49.138;7.414;2022-07-23T01:32:28;14.50;;;7.50;;
62202;SDS011;48199;49.138;7.414;2022-07-23T01:34:53;9.48;;;6.85;;
62202;SDS011;48199;49.138;7.414;2022-07-23T01:37:19;10.18;;;6.85;;
62202;SDS011;48199;49.138;7.414;2022-07-23T01:39:44;9.07;;;6.72;;
62202;SDS011;48199;49.138;7.414;2022-07-23T01:42:10;12.35;;;6.97;;
62202;SDS011;48199;49.138;7.414;2022-07-23T01:44:35;10.57;;;7.72;;
62202;SDS011;48199;49.138;7.414;2022-07-23T01:47:00;13.77;;;6.90;;
62202;SDS011;48199;49.138;7.414;2022-07-23T01:49:26;11.20;;;7.22;;
62202;SDS011;48199;49.138;7.414;2022-07-23T01:51:51;12.30;;;6.93;;
62202;SDS011;48199;49.138;7.414;2022-07-23T01:54:30;8.57;;;6.30;;
62202;SDS011;48199;49.138;7.414;2022-07-23T01:56:57;14.03;;;7.53;;
62202;SDS011;48199;49.138;7.414;2022-07-23T01:59:23;10.20;;;7.38;;
62202;SDS011;48199;49.138;7.414;2022-07-23T02:01:49;9.43;;;6.72;;
62202;SDS011;48199;49.138;7.414;2022-07-23T02:04:16;11.13;;;7.40;;
62202;SDS011;48199;49.138;7.414;2022-07-23T02:06:42;10.32;;;7.40;;
62202;SDS011;48199;49.138;7.414;2022-07-23T02:09:08;14.60;;;7.70;;
62202;SDS011;48199;49.138;7.414;2022-07-23T02:11:33;16.17;;;7.20;;
62202;SDS011;48199;49.138;7.414;2022-07-23T02:13:59;12.77;;;7.50;;
62202;SDS011;48199;49.138;7.414;2022-07-23T02:16:24;14.65;;;6.95;;
62202;SDS011;48199;49.138;7.414;2022-07-23T02:18:49;10.93;;;7.65;;
62202;SDS011;48199;49.138;7.414;2022-07-23T02:21:15;10.00;;;7.47;;
62202;SDS011;48199;49.138;7.414;2022-07-23T02:23:40;14.35;;;7.43;;
62202;SDS011;48199;49.138;7.414;2022-07-23T02:26:05;16.23;;;7.80;;
62202;SDS011;48199;49.138;7.414;2022-07-23T02:28:31;10.57;;;7.95;;
62202;SDS011;48199;49.138;7.414;2022-07-23T02:30:56;11.63;;;7.70;;
62202;SDS011;48199;49.138;7.414;2022-07-23T02:33:21;14.98;;;8.52;;
62202;SDS011;48199;49.138;7.414;2022-07-23T02:35:47;10.60;;;7.35;;
62202;SDS011;48199;49.138;7.414;2022-07-23T02:38:12;9.82;;;7.80;;
62202;SDS011;48199;49.138;7.414;2022-07-23T02:40:37;14.50;;;8.57;;
62202;SDS011;48199;49.138;7.414;2022-07-23T02:43:03;14.75;;;8.15;;
62202;SDS011;48199;49.138;7.414;2022-07-23T02:45:28;14.43;;;9.43;;
62202;SDS011;48199;49.138;7.414;2022-07-23T02:47:54;11.70;;;8.68;;
62202;SDS011;48199;49.138;7.414;2022-07-23T02:50:19;15.05;;;8.27;;
62202;SDS011;48199;49.138;7.414;2022-07-23T02:52:44;11.18;;;8.52;;
62202;SDS011;48199;49.138;7.414;2022-07-23T02:55:10;16.00;;;9.57;;
62202;SDS011;48199;49.138;7.414;2022-07-23T02:57:36;11.75;;;8.50;;
62202;SDS011;48199;49.138;7.414;2022-07-23T03:00:02;13.05;;;8.80;;
62202;SDS011;48199;49.138;7.414;2022-07-23T03:02:29;14.20;;;9.77;;
62202;SDS011;48199;49.138;7.414;2022-07-23T03:04:54;15.95;;;9.88;;
62202;SDS011;48199;49.138;7.414;2022-07-23T03:07:20;11.70;;;8.95;;
62202;SDS011;48199;49.138;7.414;2022-07-23T03:09:45;16.02;;;9.70;;
62202;SDS011;48199;49.138;7.414;2022-07-23T03:12:11;18.95;;;9.90;;
62202;SDS011;48199;49.138;7.414;2022-07-23T03:14:37;12.50;;;9.48;;
62202;SDS011;48199;49.138;7.414;2022-07-23T03:17:02;13.02;;;10.18;;
62202;SDS011;48199;49.138;7.414;2022-07-23T03:19:27;12.00;;;9.02;;
62202;SDS011;48199;49.138;7.414;2022-07-23T03:21:53;13.48;;;9.88;;
62202;SDS011;48199;49.138;7.414;2022-07-23T03:24:18;16.08;;;10.32;;
62202;SDS011;48199;49.138;7.414;2022-07-23T03:26:44;15.13;;;9.73;;
62202;SDS011;48199;49.138;7.414;2022-07-23T03:29:10;13.00;;;9.73;;
62202;SDS011;48199;49.138;7.414;2022-07-23T03:31:35;13.88;;;10.50;;
62202;SDS011;48199;49.138;7.414;2022-07-23T03:34:01;16.98;;;9.70;;
62202;SDS011;48199;49.138;7.414;2022-07-23T03:36:26;18.27;;;9.80;;
62202;SDS011;48199;49.138;7.414;2022-07-23T03:38:52;14.90;;;9.35;;
62202;SDS011;48199;49.138;7.414;2022-07-23T03:41:18;15.77;;;9.23;;
62202;SDS011;48199;49.138;7.414;2022-07-23T03:43:44;15.00;;;9.25;;
62202;SDS011;48199;49.138;7.414;2022-07-23T03:46:10;17.63;;;10.32;;
62202;SDS011;48199;49.138;7.414;2022-07-23T03:48:36;15.43;;;11.18;;
62202;SDS011;48199;49.138;7.414;2022-07-23T03:51:01;16.27;;;10.30;;
62202;SDS011;48199;49.138;7.414;2022-07-23T03:53:26;17.60;;;10.40;;
62202;SDS011;48199;49.138;7.414;2022-07-23T03:55:52;15.50;;;10.50;;
62202;SDS011;48199;49.138;7.414;2022-07-23T03:58:17;14.93;;;10.45;;
62202;SDS011;48199;49.138;7.414;2022-07-23T04:00:43;13.65;;;10.10;;
62202;SDS011;48199;49.138;7.414;2022-07-23T04:03:08;15.38;;;9.77;;
62202;SDS011;48199;49.138;7.414;2022-07-23T04:05:33;15.65;;;10.10;;
62202;SDS011;48199;49.138;7.414;2022-07-23T04:07:59;15.10;;;10.60;;
62202;SDS011;48199;49.138;7.414;2022-07-23T04:10:24;13.85;;;10.30;;
62202;SDS011;48199;49.138;7.414;2022-07-23T04:12:49;17.02;;;10.57;;
62202;SDS011;48199;49.138;7.414;2022-07-23T04:15:15;15.90;;;10.68;;
62202;SDS011;48199;49.138;7.414;2022-07-23T04:17:40;15.10;;;10.15;;
62202;SDS011;48199;49.138;7.414;2022-07-23T04:20:06;17.23;;;10.18;;
62202;SDS011;48199;49.138;7.414;2022-07-23T04:22:32;21.65;;;10.68;;
62202;SDS011;48199;49.138;7.414;2022-07-23T04:24:57;14.43;;;10.20;;
62202;SDS011;48199;49.138;7.414;2022-07-23T04:27:22;17.17;;;10.07;;
62202;SDS011;48199;49.138;7.414;2022-07-23T04:29:48;15.25;;;10.65;;
62202;SDS011;48199;49.138;7.414;2022-07-23T04:32:14;17.40;;;10.70;;
62202;SDS011;48199;49.138;7.414;2022-07-23T04:34:39;13.63;;;11.13;;
62202;SDS011;48199;49.138;7.414;2022-07-23T04:37:04;14.73;;;10.73;;
62202;SDS011;48199;49.138;7.414;2022-07-23T04:39:30;16.70;;;10.50;;
62202;SDS011;48199;49.138;7.414;2022-07-23T04:41:55;12.93;;;9.98;;
62202;SDS011;48199;49.138;7.414;2022-07-23T04:44:21;18.10;;;11.30;;
62202;SDS011;48199;49.138;7.414;2022-07-23T04:46:46;14.55;;;10.40;;
62202;SDS011;48199;49.138;7.414;2022-07-23T04:49:12;16.38;;;11.55;;
62202;SDS011;48199;49.138;7.414;2022-07-23T04:51:37;16.40;;;11.55;;
62202;SDS011;48199;49.138;7.414;2022-07-23T04:54:02;17.42;;;12.15;;
62202;SDS011;48199;49.138;7.414;2022-07-23T04:56:28;16.55;;;12.23;;
62202;SDS011;48199;49.138;7.414;2022-07-23T04:58:53;14.80;;;11.38;;
62202;SDS011;48199;49.138;7.414;2022-07-23T05:01:18;16.48;;;11.25;;
62202;SDS011;48199;49.138;7.414;2022-07-23T05:03:44;19.77;;;11.25;;
62202;SDS011;48199;49.138;7.414;2022-07-23T05:06:09;15.52;;;10.95;;
62202;SDS011;48199;49.138;7.414;2022-07-23T05:08:35;16.90;;;11.13;;
62202;SDS011;48199;49.138;7.414;2022-07-23T05:11:00;12.18;;;10.05;;
62202;SDS011;48199;49.138;7.414;2022-07-23T05:13:25;14.05;;;10.32;;
62202;SDS011;48199;49.138;7.414;2022-07-23T05:15:51;17.02;;;11.07;;
62202;SDS011;48199;49.138;7.414;2022-07-23T05:18:16;18.17;;;10.93;;
62202;SDS011;48199;49.138;7.414;2022-07-23T05:20:42;16.83;;;10.85;;
62202;SDS011;48199;49.138;7.414;2022-07-23T05:23:07;13.63;;;10.05;;
62202;SDS011;48199;49.138;7.414;2022-07-23T05:25:33;17.70;;;11.48;;
62202;SDS011;48199;49.138;7.414;2022-07-23T05:27:58;16.92;;;10.75;;
62202;SDS011;48199;49.138;7.414;2022-07-23T05:30:24;16.42;;;11.98;;
62202;SDS011;48199;49.138;7.414;2022-07-23T05:32:49;22.42;;;11.40;;
62202;SDS011;48199;49.138;7.414;2022-07-23T05:35:14;14.82;;;11.23;;
62202;SDS011;48199;49.138;7.414;2022-07-23T05:37:40;16.80;;;11.15;;
62202;SDS011;48199;49.138;7.414;2022-07-23T05:40:06;16.58;;;10.93;;
62202;SDS011;48199;49.138;7.414;2022-07-23T05:42:42;21.95;;;11.15;;
62202;SDS011;48199;49.138;7.414;2022-07-23T05:45:08;20.98;;;13.00;;
62202;SDS011;48199;49.138;7.414;2022-07-23T05:47:46;14.10;;;11.13;;
62202;SDS011;48199;49.138;7.414;2022-07-23T05:50:13;18.25;;;10.98;;
62202;SDS011;48199;49.138;7.414;2022-07-23T05:52:39;17.17;;;11.57;;
62202;SDS011;48199;49.138;7.414;2022-07-23T05:55:05;19.17;;;11.63;;
62202;SDS011;48199;49.138;7.414;2022-07-23T05:57:31;15.18;;;10.55;;
62202;SDS011;48199;49.138;7.414;2022-07-23T05:59:56;15.30;;;10.77;;
62202;SDS011;48199;49.138;7.414;2022-07-23T06:02:22;15.48;;;10.80;;
62202;SDS011;48199;49.138;7.414;2022-07-23T06:04:47;17.65;;;10.13;;
62202;SDS011;48199;49.138;7.414;2022-07-23T06:07:13;10.93;;;9.15;;
62202;SDS011;48199;49.138;7.414;2022-07-23T06:09:38;14.13;;;9.20;;
62202;SDS011;48199;49.138;7.414;2022-07-23T06:12:03;21.20;;;10.00;;
62202;SDS011;48199;49.138;7.414;2022-07-23T06:14:29;14.73;;;10.10;;
62202;SDS011;48199;49.138;7.414;2022-07-23T06:16:54;16.08;;;9.32;;
62202;SDS011;48199;49.138;7.414;2022-07-23T06:19:20;15.73;;;9.20;;
62202;SDS011;48199;49.138;7.414;2022-07-23T06:21:45;15.93;;;10.07;;
62202;SDS011;48199;49.138;7.414;2022-07-23T06:24:10;15.13;;;9.85;;
62202;SDS011;48199;49.138;7.414;2022-07-23T06:26:36;15.57;;;9.20;;
62202;SDS011;48199;49.138;7.414;2022-07-23T06:29:01;17.27;;;9.32;;
62202;SDS011;48199;49.138;7.414;2022-07-23T06:31:27;22.45;;;10.80;;
62202;SDS011;48199;49.138;7.414;2022-07-23T06:33:52;16.13;;;9.82;;
62202;SDS011;48199;49.138;7.414;2022-07-23T06:36:17;15.95;;;9.80;;
62202;SDS011;48199;49.138;7.414;2022-07-23T06:38:43;23.23;;;9.52;;
62202;SDS011;48199;49.138;7.414;2022-07-23T06:41:08;15.68;;;9.40;;
62202;SDS011;48199;49.138;7.414;2022-07-23T06:43:34;14.27;;;9.40;;
62202;SDS011;48199;49.138;7.414;2022-07-23T06:45:59;14.43;;;9.70;;
62202;SDS011;48199;49.138;7.414;2022-07-23T06:48:25;15.98;;;10.02;;
62202;SDS011;48199;49.138;7.414;2022-07-23T06:50:50;13.30;;;9.73;;
62202;SDS011;48199;49.138;7.414;2022-07-23T06:53:17;13.30;;;9.13;;
62202;SDS011;48199;49.138;7.414;2022-07-23T06:55:43;15.05;;;9.20;;
62202;SDS011;48199;49.138;7.414;2022-07-23T06:58:08;15.82;;;9.93;;
62202;SDS011;48199;49.138;7.414;2022-07-23T07:00:35;15.52;;;9.98;;
62202;SDS011;48199;49.138;7.414;2022-07-23T07:03:00;15.57;;;10.88;;
62202;SDS011;48199;49.138;7.414;2022-07-23T07:05:26;16.38;;;10.13;;
62202;SDS011;48199;49.138;7.414;2022-07-23T07:07:53;13.60;;;10.40;;
62202;SDS011;48199;49.138;7.414;2022-07-23T07:10:19;15.30;;;10.52;;
62202;SDS011;48199;49.138;7.414;2022-07-23T07:12:44;16.38;;;9.77;;
62202;SDS011;48199;49.138;7.414;2022-07-23T07:15:10;14.25;;;10.30;;
62202;SDS011;48199;49.138;7.414;2022-07-23T07:17:36;16.42;;;10.15;;
62202;SDS011;48199;49.138;7.414;2022-07-23T07:20:02;15.25;;;9.73;;
62202;SDS011;48199;49.138;7.414;2022-07-23T07:22:27;13.38;;;9.65;;
62202;SDS011;48199;49.138;7.414;2022-07-23T07:24:53;16.80;;;10.38;;
62202;SDS011;48199;49.138;7.414;2022-07-23T07:27:18;15.57;;;10.55;;
62202;SDS011;48199;49.138;7.414;2022-07-23T07:29:44;16.75;;;10.75;;
62202;SDS011;48199;49.138;7.414;2022-07-23T07:32:09;16.27;;;9.65;;
62202;SDS011;48199;49.138;7.414;2022-07-23T07:34:34;19.48;;;10.13;;
62202;SDS011;48199;49.138;7.414;2022-07-23T07:37:00;12.95;;;9.30;;
62202;SDS011;48199;49.138;7.414;2022-07-23T07:39:25;17.65;;;10.85;;
62202;SDS011;48199;49.138;7.414;2022-07-23T07:41:50;12.82;;;9.90;;
62202;SDS011;48199;49.138;7.414;2022-07-23T07:44:16;14.10;;;10.68;;
62202;SDS011;48199;49.138;7.414;2022-07-23T07:46:41;14.02;;;9.73;;
62202;SDS011;48199;49.138;7.414;2022-07-23T07:49:07;14.27;;;9.70;;
62202;SDS011;48199;49.138;7.414;2022-07-23T07:51:32;12.60;;;9.90;;
62202;SDS011;48199;49.138;7.414;2022-07-23T07:53:58;15.38;;;11.10;;
62202;SDS011;48199;49.138;7.414;2022-07-23T07:56:23;13.95;;;10.25;;
62202;SDS011;48199;49.138;7.414;2022-07-23T07:58:49;13.55;;;10.60;;
62202;SDS011;48199;49.138;7.414;2022-07-23T08:01:14;16.45;;;10.20;;
62202;SDS011;48199;49.138;7.414;2022-07-23T08:03:39;15.65;;;10.55;;
62202;SDS011;48199;49.138;7.414;2022-07-23T08:06:05;15.43;;;9.73;;
62202;SDS011;48199;49.138;7.414;2022-07-23T08:08:31;15.80;;;9.10;;
62202;SDS011;48199;49.138;7.414;2022-07-23T08:10:56;15.55;;;9.80;;
62202;SDS011;48199;49.138;7.414;2022-07-23T08:13:22;11.95;;;9.27;;
62202;SDS011;48199;49.138;7.414;2022-07-23T08:15:47;14.27;;;10.20;;
62202;SDS011;48199;49.138;7.414;2022-07-23T08:18:13;12.70;;;9.60;;
62202;SDS011;48199;49.138;7.414;2022-07-23T08:20:38;13.85;;;9.25;;
62202;SDS011;48199;49.138;7.414;2022-07-23T08:23:04;14.43;;;9.60;;
62202;SDS011;48199;49.138;7.414;2022-07-23T08:25:35;19.33;;;10.00;;
62202;SDS011;48199;49.138;7.414;2022-07-23T08:28:02;14.95;;;9.65;;
62202;SDS011;48199;49.138;7.414;2022-07-23T08:30:30;13.30;;;10.32;;
62202;SDS011;48199;49.138;7.414;2022-07-23T08:32:57;13.82;;;9.63;;
62202;SDS011;48199;49.138;7.414;2022-07-23T08:35:30;14.00;;;9.27;;
62202;SDS011;48199;49.138;7.414;2022-07-23T08:37:58;12.43;;;9.20;;
62202;SDS011;48199;49.138;7.414;2022-07-23T08:40:28;15.68;;;9.68;;
62202;SDS011;48199;49.138;7.414;2022-07-23T08:42:55;16.27;;;10.50;;
62202;SDS011;48199;49.138;7.414;2022-07-23T08:45:21;14.88;;;10.15;;
62202;SDS011;48199;49.138;7.414;2022-07-23T08:47:49;20.02;;;10.02;;
62202;SDS011;48199;49.138;7.414;2022-07-23T08:50:15;18.45;;;9.63;;
62202;SDS011;48199;49.138;7.414;2022-07-23T08:52:41;17.85;;;9.77;;
62202;SDS011;48199;49.138;7.414;2022-07-23T08:55:07;19.95;;;10.38;;
62202;SDS011;48199;49.138;7.414;2022-07-23T08:57:33;11.32;;;9.30;;
62202;SDS011;48199;49.138;7.414;2022-07-23T08:59:59;11.95;;;8.35;;
62202;SDS011;48199;49.138;7.414;2022-07-23T09:02:24;13.40;;;9.02;;
62202;SDS011;48199;49.138;7.414;2022-07-23T09:04:49;14.70;;;9.52;;
62202;SDS011;48199;49.138;7.414;2022-07-23T09:07:15;17.48;;;10.05;;
62202;SDS011;48199;49.138;7.414;2022-07-23T09:09:40;15.88;;;9.88;;
62202;SDS011;48199;49.138;7.414;2022-07-23T09:12:07;11.60;;;8.55;;
62202;SDS011;48199;49.138;7.414;2022-07-23T09:14:40;10.65;;;8.88;;
62202;SDS011;48199;49.138;7.414;2022-07-23T09:17:12;10.57;;;8.57;;
62202;SDS011;48199;49.138;7.414;2022-07-23T09:19:39;12.75;;;8.65;;
62202;SDS011;48199;49.138;7.414;2022-07-23T09:22:21;12.73;;;8.55;;
62202;SDS011;48199;49.138;7.414;2022-07-23T09:27:55;15.55;;;8.95;;
62202;SDS011;48199;49.138;7.414;2022-07-23T09:30:23;13.85;;;8.55;;
62202;SDS011;48199;49.138;7.414;2022-07-23T09:35:43;14.35;;;8.10;;
62202;SDS011;48199;49.138;7.414;2022-07-23T09:38:10;14.88;;;8.88;;
62202;SDS011;48199;49.138;7.414;2022-07-23T09:40:36;12.95;;;8.98;;
62202;SDS011;48199;49.138;7.414;2022-07-23T09:43:02;11.32;;;8.70;;
62202;SDS011;48199;49.138;7.414;2022-07-23T09:45:27;13.05;;;9.13;;
62202;SDS011;48199;49.138;7.414;2022-07-23T09:47:56;12.15;;;8.23;;
62202;SDS011;48199;49.138;7.414;2022-07-23T09:50:35;13.98;;;8.13;;
62202;SDS011;48199;49.138;7.414;2022-07-23T09:53:00;12.05;;;8.50;;
62202;SDS011;48199;49.138;7.414;2022-07-23T09:55:30;29.83;;;9.65;;
62202;SDS011;48199;49.138;7.414;2022-07-23T09:58:01;14.90;;;8.65;;
62202;SDS011;48199;49.138;7.414;2022-07-23T10:00:27;14.75;;;9.02;;
62202;SDS011;48199;49.138;7.414;2022-07-23T10:02:54;13.10;;;8.80;;
62202;SDS011;48199;49.138;7.414;2022-07-23T10:05:20;13.63;;;8.68;;
62202;SDS011;48199;49.138;7.414;2022-07-23T10:07:46;13.68;;;9.35;;
62202;SDS011;48199;49.138;7.414;2022-07-23T10:10:11;11.20;;;8.38;;
62202;SDS011;48199;49.138;7.414;2022-07-23T10:12:38;15.70;;;9.27;;
62202;SDS011;48199;49.138;7.414;2022-07-23T10:15:16;10.93;;;8.57;;
62202;SDS011;48199;49.138;7.414;2022-07-23T10:17:41;11.43;;;7.97;;
62202;SDS011;48199;49.138;7.414;2022-07-23T10:20:07;12.90;;;7.90;;
62202;SDS011;48199;49.138;7.414;2022-07-23T10:22:56;13.13;;;7.65;;
62202;SDS011;48199;49.138;7.414;2022-07-23T10:25:39;10.77;;;7.15;;
62202;SDS011;48199;49.138;7.414;2022-07-23T10:31:14;9.43;;;7.87;;
62202;SDS011;48199;49.138;7.414;2022-07-23T10:33:59;13.43;;;7.95;;
62202;SDS011;48199;49.138;7.414;2022-07-23T10:36:44;10.63;;;7.28;;
62202;SDS011;48199;49.138;7.414;2022-07-23T10:39:16;10.98;;;6.80;;
62202;SDS011;48199;49.138;7.414;2022-07-23T10:42:08;10.38;;;7.80;;
62202;SDS011;48199;49.138;7.414;2022-07-23T10:44:38;9.90;;;7.57;;
62202;SDS011;48199;49.138;7.414;2022-07-23T10:47:08;12.05;;;7.85;;
62202;SDS011;48199;49.138;7.414;2022-07-23T10:49:53;9.48;;;7.18;;
62202;SDS011;48199;49.138;7.414;2022-07-23T10:52:20;9.48;;;7.10;;
62202;SDS011;48199;49.138;7.414;2022-07-23T10:54:48;12.20;;;6.88;;
62202;SDS011;48199;49.138;7.414;2022-07-23T10:57:16;12.05;;;7.60;;
62202;SDS011;48199;49.138;7.414;2022-07-23T11:02:32;11.13;;;7.30;;
62202;SDS011;48199;49.138;7.414;2022-07-23T11:04:59;9.40;;;7.32;;
62202;SDS011;48199;49.138;7.414;2022-07-23T11:07:35;14.27;;;7.55;;
62202;SDS011;48199;49.138;7.414;2022-07-23T11:10:02;12.68;;;8.13;;
62202;SDS011;48199;49.138;7.414;2022-07-23T11:15:12;11.30;;;7.82;;
62202;SDS011;48199;49.138;7.414;2022-07-23T11:22:45;10.35;;;7.05;;
62202;SDS011;48199;49.138;7.414;2022-07-23T11:25:29;10.73;;;6.97;;
62202;SDS011;48199;49.138;7.414;2022-07-23T11:28:11;9.65;;;6.97;;
62202;SDS011;48199;49.138;7.414;2022-07-23T11:30:46;12.05;;;7.55;;
62202;SDS011;48199;49.138;7.414;2022-07-23T11:35:39;14.77;;;7.38;;
62202;SDS011;48199;49.138;7.414;2022-07-23T11:38:06;12.60;;;7.70;;
62202;SDS011;48199;49.138;7.414;2022-07-23T11:40:36;9.05;;;6.30;;
62202;SDS011;48199;49.138;7.414;2022-07-23T11:43:02;14.18;;;7.18;;
62202;SDS011;48199;49.138;7.414;2022-07-23T11:45:39;11.05;;;7.10;;
62202;SDS011;48199;49.138;7.414;2022-07-23T11:48:14;15.20;;;7.45;;
62202;SDS011;48199;49.138;7.414;2022-07-23T11:50:42;12.18;;;7.53;;
62202;SDS011;48199;49.138;7.414;2022-07-23T11:53:07;13.05;;;7.95;;
62202;SDS011;48199;49.138;7.414;2022-07-23T11:55:33;9.45;;;7.15;;
62202;SDS011;48199;49.138;7.414;2022-07-23T11:57:59;10.40;;;7.65;;
62202;SDS011;48199;49.138;7.414;2022-07-23T12:00:25;10.18;;;7.32;;
62202;SDS011;48199;49.138;7.414;2022-07-23T12:02:54;11.90;;;7.93;;
62202;SDS011;48199;49.138;7.414;2022-07-23T12:05:25;11.85;;;7.80;;
62202;SDS011;48199;49.138;7.414;2022-07-23T12:07:53;10.70;;;7.50;;
62202;SDS011;48199;49.138;7.414;2022-07-23T12:12:49;10.02;;;7.72;;
62202;SDS011;48199;49.138;7.414;2022-07-23T12:15:21;11.25;;;7.05;;
62202;SDS011;48199;49.138;7.414;2022-07-23T12:17:48;9.77;;;6.93;;
62202;SDS011;48199;49.138;7.414;2022-07-23T12:20:16;9.38;;;7.18;;
62202;SDS011;48199;49.138;7.414;2022-07-23T12:22:44;11.35;;;7.88;;
62202;SDS011;48199;49.138;7.414;2022-07-23T12:25:13;9.57;;;7.30;;
62202;SDS011;48199;49.138;7.414;2022-07-23T12:27:39;11.63;;;7.45;;
62202;SDS011;48199;49.138;7.414;2022-07-23T12:32:50;13.55;;;7.40;;
62202;SDS011;48199;49.138;7.414;2022-07-23T12:35:21;12.17;;;8.03;;
62202;SDS011;48199;49.138;7.414;2022-07-23T12:37:49;11.35;;;7.50;;
62202;SDS011;48199;49.138;7.414;2022-07-23T12:43:06;16.65;;;8.05;;
62202;SDS011;48199;49.138;7.414;2022-07-23T12:45:53;11.23;;;7.38;;
62202;SDS011;48199;49.138;7.414;2022-07-23T12:48:36;11.02;;;7.40;;
62202;SDS011;48199;49.138;7.414;2022-07-23T12:51:15;11.70;;;8.25;;
62202;SDS011;48199;49.138;7.414;2022-07-23T12:53:43;10.27;;;7.35;;
62202;SDS011;48199;49.138;7.414;2022-07-23T12:56:14;11.43;;;7.43;;
62202;SDS011;48199;49.138;7.414;2022-07-23T12:58:48;10.02;;;6.75;;
62202;SDS011;48199;49.138;7.414;2022-07-23T13:06:32;12.75;;;6.90;;
62202;SDS011;48199;49.138;7.414;2022-07-23T13:09:03;10.52;;;7.15;;
62202;SDS011;48199;49.138;7.414;2022-07-23T13:11:31;12.15;;;7.47;;
62202;SDS011;48199;49.138;7.414;2022-07-23T13:13:57;12.43;;;6.82;;
62202;SDS011;48199;49.138;7.414;2022-07-23T13:16:23;9.02;;;6.57;;
62202;SDS011;48199;49.138;7.414;2022-07-23T13:18:48;13.02;;;6.72;;
62202;SDS011;48199;49.138;7.414;2022-07-23T13:21:14;8.55;;;6.63;;
62202;SDS011;48199;49.138;7.414;2022-07-23T13:23:39;9.52;;;6.10;;
62202;SDS011;48199;49.138;7.414;2022-07-23T13:26:05;7.75;;;6.43;;
62202;SDS011;48199;49.138;7.414;2022-07-23T13:28:30;11.05;;;7.47;;
62202;SDS011;48199;49.138;7.414;2022-07-23T13:30:56;10.88;;;7.22;;
62202;SDS011;48199;49.138;7.414;2022-07-23T13:33:22;9.77;;;6.80;;
62202;SDS011;48199;49.138;7.414;2022-07-23T13:35:49;11.25;;;6.30;;
62202;SDS011;48199;49.138;7.414;2022-07-23T13:38:15;10.20;;;7.25;;
62202;SDS011;48199;49.138;7.414;2022-07-23T13:40:43;10.20;;;7.28;;
62202;SDS011;48199;49.138;7.414;2022-07-23T13:43:11;10.32;;;6.57;;
62202;SDS011;48199;49.138;7.414;2022-07-23T13:45:39;9.70;;;6.57;;
62202;SDS011;48199;49.138;7.414;2022-07-23T13:48:05;8.77;;;6.28;;
62202;SDS011;48199;49.138;7.414;2022-07-23T13:50:31;7.93;;;6.68;;
62202;SDS011;48199;49.138;7.414;2022-07-23T13:53:00;9.95;;;6.05;;
62202;SDS011;48199;49.138;7.414;2022-07-23T13:55:26;9.98;;;6.10;;
62202;SDS011;48199;49.138;7.414;2022-07-23T13:57:52;11.55;;;6.53;;
62202;SDS011;48199;49.138;7.414;2022-07-23T14:00:17;11.43;;;6.80;;
62202;SDS011;48199;49.138;7.414;2022-07-23T14:02:43;13.25;;;7.18;;
62202;SDS011;48199;49.138;7.414;2022-07-23T14:05:09;9.00;;;6.35;;
62202;SDS011;48199;49.138;7.414;2022-07-23T14:07:36;12.18;;;7.57;;
62202;SDS011;48199;49.138;7.414;2022-07-23T14:10:07;9.88;;;6.30;;
62202;SDS011;48199;49.138;7.414;2022-07-23T14:12:33;8.23;;;6.63;;
62202;SDS011;48199;49.138;7.414;2022-07-23T14:14:58;10.20;;;6.50;;
62202;SDS011;48199;49.138;7.414;2022-07-23T14:17:24;12.65;;;6.38;;
62202;SDS011;48199;49.138;7.414;2022-07-23T14:19:49;18.77;;;6.95;;
62202;SDS011;48199;49.138;7.414;2022-07-23T14:22:15;9.23;;;6.57;;
62202;SDS011;48199;49.138;7.414;2022-07-23T14:24:41;10.35;;;7.15;;
62202;SDS011;48199;49.138;7.414;2022-07-23T14:27:06;10.93;;;7.38;;
62202;SDS011;48199;49.138;7.414;2022-07-23T14:29:32;9.50;;;6.95;;
62202;SDS011;48199;49.138;7.414;2022-07-23T14:31:58;13.73;;;7.50;;
62202;SDS011;48199;49.138;7.414;2022-07-23T14:34:24;11.45;;;7.50;;
62202;SDS011;48199;49.138;7.414;2022-07-23T14:36:50;11.13;;;7.47;;
62202;SDS011;48199;49.138;7.414;2022-07-23T14:39:16;10.63;;;7.40;;
62202;SDS011;48199;49.138;7.414;2022-07-23T14:41:41;12.30;;;6.88;;
62202;SDS011;48199;49.138;7.414;2022-07-23T14:44:07;11.18;;;7.60;;
62202;SDS011;48199;49.138;7.414;2022-07-23T14:46:32;10.70;;;7.55;;
62202;SDS011;48199;49.138;7.414;2022-07-23T14:48:58;9.63;;;6.75;;
62202;SDS011;48199;49.138;7.414;2022-07-23T14:51:23;10.60;;;7.00;;
62202;SDS011;48199;49.138;7.414;2022-07-23T14:53:48;11.48;;;7.57;;
62202;SDS011;48199;49.138;7.414;2022-07-23T14:56:14;10.15;;;7.43;;
62202;SDS011;48199;49.138;7.414;2022-07-23T14:58:40;9.30;;;6.97;;
62202;SDS011;48199;49.138;7.414;2022-07-23T15:01:06;11.88;;;7.03;;
62202;SDS011;48199;49.138;7.414;2022-07-23T15:03:32;11.82;;;7.00;;
62202;SDS011;48199;49.138;7.414;2022-07-23T15:05:58;13.93;;;6.85;;
62202;SDS011;48199;49.138;7.414;2022-07-23T15:08:23;11.05;;;7.03;;